Terminal Aerodrome Forecast
Issued by NWS Cleveland, OH

Home | Current Version | Previous Version | Text Only | Print | Product List | Glossary On
Versions: 1 2 3 4 5 6 7 8 9 10 11 12 13 14 15 16 17 18
000
FTUS41 KCLE 251100
TAFERI
TAF
KERI 251135Z 2512/2612 20010KT P6SM SCT050
      TEMPO 2512/2513 BKN035
     FM251600 22012G20KT P6SM BKN035 OVC060
     FM251800 24015G22KT P6SM BKN018 OVC035
     FM260000 27014G22KT P6SM SCT030=

USA.gov is the U.S. government's official web portal to all federal, state and local government web resources and services.